Item Display Status Serial CT Sensor

Mooring Depth: 1 m

 

Deployed Sensor

  • Serial Number: 8803
  • NDBC Property Number: 35208
  • Start Date: 4/25/2018 (15:38:27 Z)
  • End Date: 3/29/2020 (22:45:00 Z)
Water Temperature [°C]     6 entries per hour
Showing data from 6/6/2019 (10:00:00 Z) to 6/5/2019 (00:00:01 Z)
Previous Next [ Day | 3-Days | 7-Days ]
First Last
Prev [ Day | 3-Days | 7-Days ] Next
First Last

Start Time:     :
End Time:     :     
Time (in GMT) :00 :50 :40 :30 :20 :10
Previous Next [ Day | 3-Days | 7-Days ]
First Last
Prev [ Day | 3-Days | 7-Days ] Next
First Last


123 => good data
MM => data is determined as missing
-- => data not received/configured
Back to Top Back to Top
6/6/2019 10:00 to 9:10 29.147 29.133 29.148 29.149 29.146 29.148
6/6/2019 09:00 to 8:10 29.151 29.153 29.157 29.145 29.149 29.154
6/6/2019 08:00 to 7:10 29.159 29.156 29.162 29.163 29.159 29.156
6/6/2019 07:00 to 6:10 29.159 29.162 29.171 29.167 29.165 29.170
6/6/2019 06:00 to 5:10 29.167 29.164 29.169 29.177 29.178 29.168
6/6/2019 05:00 to 4:10 29.181 29.179 29.170 29.175 29.175 29.177
6/6/2019 04:00 to 3:10 29.174 29.180 29.187 29.187 29.188 29.186
6/6/2019 03:00 to 2:10 29.188 29.179 29.185 29.189 29.194 29.191
6/6/2019 02:00 to 1:10 29.187 29.192 29.191 29.192 29.194 29.193
6/6/2019 01:00 to 0:10 29.193 29.194 29.194 29.191 29.189 29.189
6/6/2019 00:00 to 23:10 29.186 29.189 29.188 29.188 29.184 29.187
6/5/2019 23:00 to 22:10 29.185 29.183 29.185 29.184 29.186 29.184
6/5/2019 22:00 to 21:10 29.181 29.183 29.185 29.187 29.182 29.185
6/5/2019 21:00 to 20:10 29.186 29.185 29.183 29.179 29.176 29.181
6/5/2019 20:00 to 19:10 29.167 29.175 29.171 29.166 29.177 29.168
6/5/2019 19:00 to 18:10 29.172 29.162 29.171 29.177 29.175 29.170
6/5/2019 18:00 to 17:10 29.179 29.185 29.183 29.183 29.181 29.179
6/5/2019 17:00 to 16:10 29.179 29.185 29.188 29.189 29.196 29.189
6/5/2019 16:00 to 15:10 -- -- -- -- -- --
6/5/2019 15:00 to 14:10 29.200 29.198 29.199 29.191 29.199 29.208
6/5/2019 14:00 to 13:10 29.187 29.200 29.200 29.209 29.207 29.198
6/5/2019 13:00 to 12:10 29.199 29.210 29.207 29.203 29.208 29.201
6/5/2019 12:00 to 11:10 29.204 29.208 29.215 29.209 29.215 29.215
6/5/2019 11:00 to 10:10 29.212 29.217 29.221 29.211 29.221 29.218
6/5/2019 10:00 to 9:10 29.217 29.226 29.217 29.229 29.225 29.229
6/5/2019 09:00 to 8:10 29.224 29.231 29.236 29.233 29.225 29.232
6/5/2019 08:00 to 7:10 29.232 29.225 29.232 29.233 29.235 29.222
6/5/2019 07:00 to 6:10 29.240 29.238 29.234 29.245 29.245 29.248
6/5/2019 06:00 to 5:10 29.250 29.255 29.262 29.254 29.252 29.274
6/5/2019 05:00 to 4:10 29.267 29.271 29.269 29.277 29.284 29.295
6/5/2019 04:00 to 3:10 29.295 29.295 29.299 29.296 29.307 29.307
6/5/2019 03:00 to 2:10 29.305 29.316 29.322 29.327 29.329 29.329
6/5/2019 02:00 to 1:10 29.328 29.330 29.335 29.328 29.342 29.348
6/5/2019 01:00 to 0:10 29.347 29.339 29.340 29.332 29.323 29.323

 

 

 

Conductivity [S/m]     6 entries per hour
Showing data from 6/6/2019 (10:00:00 Z) to 6/5/2019 (00:00:01 Z)
Previous Next [ Day | 3-Days | 7-Days ]
First Last
Prev [ Day | 3-Days | 7-Days ] Next
First Last

Start Time:     :
End Time:     :     
Time (in GMT) :00 :50 :40 :30 :20 :10
Previous Next [ Day | 3-Days | 7-Days ]
First Last
Prev [ Day | 3-Days | 7-Days ] Next
First Last


123 => good data
MM => data is determined as missing
-- => data not received/configured
Back to Top Back to Top
6/6/2019 10:00 to 9:10 5.81638 5.81457 5.81616 5.81649 5.81515 5.81653
6/6/2019 09:00 to 8:10 5.81660 5.81684 5.81729 5.81617 5.81636 5.81739
6/6/2019 08:00 to 7:10 5.81772 5.81707 5.81805 5.81766 5.81782 5.81688
6/6/2019 07:00 to 6:10 5.81752 5.81788 5.81910 5.81857 5.81832 5.81854
6/6/2019 06:00 to 5:10 5.81827 5.81788 5.81866 5.81937 5.81937 5.81833
6/6/2019 05:00 to 4:10 5.81953 5.81964 5.81875 5.81911 5.81918 5.81953
6/6/2019 04:00 to 3:10 5.81917 5.81981 5.82043 5.82054 5.82035 5.82024
6/6/2019 03:00 to 2:10 5.82062 5.81969 5.82016 5.82069 5.82101 5.82071
6/6/2019 02:00 to 1:10 5.82046 5.82077 5.82105 5.82098 5.82120 5.82118
6/6/2019 01:00 to 0:10 5.82129 5.82130 5.82137 5.82103 5.82090 5.82093
6/6/2019 00:00 to 23:10 5.82076 5.82080 5.82067 5.82060 5.82039 5.82082
6/5/2019 23:00 to 22:10 5.82024 5.82023 5.82060 5.82070 5.82063 5.82048
6/5/2019 22:00 to 21:10 5.82027 5.82059 5.82094 5.82078 5.82012 5.82001
6/5/2019 21:00 to 20:10 5.82030 5.82067 5.82038 5.81975 5.81934 5.82000
6/5/2019 20:00 to 19:10 5.81812 5.81897 5.81884 5.81898 5.81905 5.81841
6/5/2019 19:00 to 18:10 5.81842 5.81775 5.81729 5.81917 5.81707 5.81825
6/5/2019 18:00 to 17:10 5.82081 5.82125 5.82168 5.82151 5.82137 5.82116
6/5/2019 17:00 to 16:10 5.82104 5.82183 5.82243 5.82221 5.82319 5.82247
6/5/2019 16:00 to 15:10 -- -- -- -- -- --
6/5/2019 15:00 to 14:10 5.82331 5.82336 5.82333 5.82290 5.82343 5.82396
6/5/2019 14:00 to 13:10 5.82256 5.82353 5.82317 5.82400 5.82435 5.82332
6/5/2019 13:00 to 12:10 5.82316 5.82439 5.82408 5.82388 5.82430 5.82339
6/5/2019 12:00 to 11:10 5.82389 5.82431 5.82505 5.82464 5.82524 5.82514
6/5/2019 11:00 to 10:10 5.82466 5.82558 5.82568 5.82437 5.82523 5.82524
6/5/2019 10:00 to 9:10 5.82508 5.82601 5.82521 5.82620 5.82607 5.82649
6/5/2019 09:00 to 8:10 5.82581 5.82639 5.82691 5.82690 5.82622 5.82678
6/5/2019 08:00 to 7:10 5.82676 5.82614 5.82685 5.82687 5.82743 5.82584
6/5/2019 07:00 to 6:10 5.82749 5.82762 5.82703 5.82830 5.82830 5.82870
6/5/2019 06:00 to 5:10 5.82880 5.82936 5.82994 5.82933 5.82911 5.83121
6/5/2019 05:00 to 4:10 5.83063 5.83112 5.83098 5.83173 5.83253 5.83351
6/5/2019 04:00 to 3:10 5.83376 5.83373 5.83396 5.83395 5.83497 5.83512
6/5/2019 03:00 to 2:10 5.83490 5.83600 5.83665 5.83713 5.83737 5.83745
6/5/2019 02:00 to 1:10 5.83733 5.83738 5.83814 5.83736 5.83905 5.83957
6/5/2019 01:00 to 0:10 5.83946 5.83853 5.83863 5.83800 5.83693 5.83684

 

 

 

Salinity [psu]     6 entries per hour
Showing data from 6/6/2019 (10:00:00 Z) to 6/5/2019 (00:00:01 Z)
Previous Next [ Day | 3-Days | 7-Days ]
First Last
Prev [ Day | 3-Days | 7-Days ] Next
First Last

Start Time:     :
End Time:     :     
Time (in GMT) :00 :50 :40 :30 :20 :10
Previous Next [ Day | 3-Days | 7-Days ]
First Last
Prev [ Day | 3-Days | 7-Days ] Next
First Last


123 => good data
MM => data is determined as missing
-- => data not received/configured
Back to Top Back to Top
6/6/2019 10:00 to 9:10 35.49 35.49 35.49 35.49 35.49 35.49
6/6/2019 09:00 to 8:10 35.49 35.49 35.49 35.49 35.49 35.49
6/6/2019 08:00 to 7:10 35.49 35.49 35.49 35.49 35.49 35.49
6/6/2019 07:00 to 6:10 35.49 35.49 35.49 35.49 35.49 35.49
6/6/2019 06:00 to 5:10 35.49 35.49 35.49 35.49 35.49 35.49
6/6/2019 05:00 to 4:10 35.49 35.49 35.49 35.49 35.49 35.49
6/6/2019 04:00 to 3:10 35.49 35.49 35.49 35.49 35.49 35.49
6/6/2019 03:00 to 2:10 35.49 35.49 35.49 35.49 35.49 35.49
6/6/2019 02:00 to 1:10 35.49 35.49 35.49 35.49 35.49 35.49
6/6/2019 01:00 to 0:10 35.49 35.49 35.49 35.49 35.49 35.49
6/6/2019 00:00 to 23:10 35.49 35.49 35.49 35.49 35.49 35.49
6/5/2019 23:00 to 22:10 35.49 35.49 35.49 35.50 35.49 35.49
6/5/2019 22:00 to 21:10 35.49 35.50 35.50 35.49 35.49 35.49
6/5/2019 21:00 to 20:10 35.49 35.49 35.49 35.49 35.49 35.49
6/5/2019 20:00 to 19:10 35.49 35.49 35.49 35.50 35.49 35.49
6/5/2019 19:00 to 18:10 35.49 35.49 35.48 35.49 35.48 35.49
6/5/2019 18:00 to 17:10 35.50 35.50 35.50 35.50 35.50 35.50
6/5/2019 17:00 to 16:10 35.50 35.50 35.50 35.50 35.50 35.50
6/5/2019 16:00 to 15:10 -- -- -- -- -- --
6/5/2019 15:00 to 14:10 35.50 35.50 35.50 35.51 35.50 35.50
6/5/2019 14:00 to 13:10 35.51 35.50 35.50 35.50 35.50 35.50
6/5/2019 13:00 to 12:10 35.50 35.50 35.50 35.50 35.50 35.50
6/5/2019 12:00 to 11:10 35.50 35.50 35.50 35.50 35.50 35.50
6/5/2019 11:00 to 10:10 35.50 35.50 35.50 35.50 35.50 35.50
6/5/2019 10:00 to 9:10 35.50 35.50 35.50 35.50 35.50 35.50
6/5/2019 09:00 to 8:10 35.50 35.50 35.50 35.50 35.50 35.50
6/5/2019 08:00 to 7:10 35.50 35.50 35.50 35.50 35.50 35.50
6/5/2019 07:00 to 6:10 35.50 35.50 35.50 35.50 35.50 35.50
6/5/2019 06:00 to 5:10 35.50 35.50 35.50 35.50 35.50 35.50
6/5/2019 05:00 to 4:10 35.50 35.50 35.50 35.50 35.50 35.50
6/5/2019 04:00 to 3:10 35.50 35.50 35.50 35.50 35.50 35.50
6/5/2019 03:00 to 2:10 35.50 35.50 35.50 35.50 35.50 35.50
6/5/2019 02:00 to 1:10 35.50 35.50 35.50 35.50 35.50 35.50
6/5/2019 01:00 to 0:10 35.50 35.50 35.50 35.50 35.50 35.50